METAR Data
IDs: Format: Raw Decoded Include TAF

Data at: 0227 UTC 19 Oct 2021

PAJZ 190156Z AUTO 29003KT 7SM CLR 04/M04 A2964 RMK AO2 SLP044 T00391044 $
PAJZ 190056Z AUTO 00000KT 8SM CLR 06/M05 A2965 RMK AO2 SLP049 T00561050 $
PAJZ 182356Z AUTO 36005KT 7SM CLR 05/M05 A2966 RMK AO2 SLP050 T00501050 10056 21022 58017 $
PAJZ 182256Z AUTO 01006KT 8SM CLR 04/M05 A2968 RMK AO2 SLP057 T00441050 $
PAJZ 182156Z AUTO 01005KT 8SM CLR 03/M06 A2970 RMK AO2 SLP065 T00331056 $
PAJZ 182056Z AUTO 01008KT 8SM CLR 02/M06 A2971 RMK AO2 SLP067 T00171056 50002 FZRANO $
PAJZ 181956Z AUTO 36009KT 8SM CLR 00/M06 A2971 RMK AO2 SLP070 T00001056 FZRANO $
PAJZ 181856Z AUTO 36011G17KT 8SM CLR M01/M06 A2971 RMK AO2 SLP067 T10111061 FZRANO $
PAJZ 181756Z AUTO 35008KT 8SM CLR M02/M06 A2970 RMK AO2 SLP064 T10221061 10000 21028 53008 FZRANO $
PAJZ 181656Z AUTO 01014G20KT 9SM CLR M02/M06 A2969 RMK AO2 SLP062 T10171061 FZRANO $
PAJZ 181556Z AUTO 36011KT 9SM CLR M02/M06 A2968 RMK AO2 SLP059 T10221061 FZRANO $
PAJZ 181456Z AUTO 36015KT 9SM CLR M02/M06 A2968 RMK AO2 SLP057 T10171061 51014 FZRANO $
PAJZ 181356Z AUTO 35013G19KT 9SM CLR M01/M06 A2967 RMK AO2 SLP055 T10111056 FZRANO $
PAJZ 181256Z AUTO 36013KT 9SM FEW090 M01/M06 A2965 RMK AO2 SLP049 T10111056 FZRANO $
PAJZ 181156Z AUTO 32007G14KT 9SM FEW075 SCT090 M01/M05 A2963 RMK AO2 PK WND 36027/1114 SLP042 70002 T10061050 10017 21006 51032 FZRANO $
PAJZ 181056Z AUTO 01015G20KT 9SM OVC095 00/M06 A2960 RMK AO2 SLP030 T00001056 FZRANO $
PAJZ 180956Z AUTO 34010G16KT 9SM CLR M01/M05 A2957 RMK AO2 SLP021 T10061050 FZRANO $
PAJZ 180856Z AUTO 36016G22KT 9SM SCT100 00/M06 A2954 RMK AO2 PK WND 01028/0830 SLP009 T00001056 53039 FZRANO $
PAJZ 180756Z AUTO 01017G27KT 9SM SCT110 01/M05 A2950 RMK AO2 PK WND 02028/0736 SLP995 T00061050 400610006 FZRANO $
PAJZ 180656Z AUTO 01019G25KT 9SM FEW110 01/M05 A2946 RMK AO2 PK WND 03028/0603 SLP983 T00111050 FZRANO $
PAJZ 180556Z AUTO 02021G27KT 9SM OVC100 02/M04 A2942 RMK AO2 PK WND 02029/0540 SLP970 T00171044 10061 20017 51042 FZRANO $
PAJZ 180456Z AUTO 01018G23KT 9SM OVC080 02/M04 A2938 RMK AO2 PK WND 01027/0419 SLP957 T00221044 FZRANO $
PAJZ 180356Z AUTO 02016G22KT 9SM OVC090 03/M04 A2934 RMK AO2 SLP941 T00331044 $
PAJZ 180256Z AUTO 01015G22KT 8SM OVC070 04/M03 A2930 RMK AO2 PK WND 03030/0200 SLP929 T00391033 53033 $
PAJZ 180156Z AUTO 03016G24KT 8SM OVC070 05/M03 A2925 RMK AO2 SLP913 T00501033 $
PAJZ 180056Z AUTO 03018KT 8SM OVC080 06/M02 A2923 RMK AO2 PK WND 04026/0000 SLP904 T00561022 $
PAJZ 172356Z AUTO 04017G24KT 8SM OVC070 06/M03 A2920 RMK AO2 SLP895 T00611028 10061 20022 51023 $
PAJZ 172256Z AUTO 04018KT 8SM OVC070 06/M03 A2918 RMK AO2 PK WND 04026/2231 SLP889 T00561028 $
PAJZ 172156Z AUTO 05018G24KT 8SM OVC060 05/M02 A2915 RMK AO2 PK WND 05028/2137 SLP880 T00501022 $
PAJZ 172056Z AUTO 07022G27KT 8SM OVC070 05/M02 A2913 RMK AO2 PK WND 08040/2002 SLP871 T00501017 53016 $
PAJZ 171956Z AUTO 08034G42KT 8SM OVC080 04/M01 A2909 RMK AO2 PK WND 08044/1916 SLP859 T00391011 $
PAJZ 171906Z AUTO 09028G37KT 8SM SCT023 OVC070 03/M01 A2908 RMK AO2 PK WND 09037/1904 $
PAJZ 171856Z AUTO 09026G35KT 8SM BKN023 OVC070 03/M01 A2909 RMK AO2 PK WND 09040/1758 SLP857 T00281006 $
PAJZ 171756Z AUTO 09030G37KT 8SM OVC019 02/M01 A2908 RMK AO2 PK WND 08037/1755 SLP855 60002 T00221006 10022 20017 53005 FZRANO $
PAJZ 171656Z AUTO 09029G38KT 9SM OVC015 02/00 A2908 RMK AO2 PK WND 09040/1602 UPE12 SLP853 P0000 T00220000 FZRANO $
PAJZ 171619Z AUTO 10027G38KT 10SM OVC013 02/00 A2907 RMK AO2 PK WND 09040/1602 UPE12 P0000 FZRANO $
PAJZ 171556Z AUTO 10026G36KT 10SM UP OVC015 02/01 A2907 RMK AO2 PK WND 10039/1536 RAE03UPB03E06B28 SLP850 P0000 T00220006 FZRANO $
PAJZ 171507Z AUTO 10023G35KT 10SM OVC015 02/01 A2907 RMK AO2 PK WND 10038/1457 RAE03UPB03E06 P0000 FZRANO $
PAJZ 171456Z AUTO 10027G42KT 10SM -RA OVC013 02/01 A2907 RMK AO2 PK WND 10042/1449 SLP850 P0000 60002 T00220006 56026 FZRANO $